Sao Joao Evangelista, Brazil
Current Conditions -  °F | °C
As of 8:00 PM on Thursday 27 Nov 2014 (Local Time) from SBIP Reporting Station
Thunderstorm Thunderstorm  
Wind Chill: 77°   Ceiling: 8000
Heat Index: 78°   Visibility: 2.5mi
Dew Point: 73°   Wind: 3mph
Humidity: 89%   Direction: 50°NE
Pressure: NA   Gusts: NA
Location:  18.55°S, 42.76°W
Report Text: SBIP 272200Z 05003KT 4000 -TSRA SCT025 FEW035CB BKN080 25/23 Q1011
Loading
Personal Weather Stations






























Interactive Weather Map New forecast layout! Learn more

10-Day Weather Forecast

Advertisements
Track Severe Weather on mobile